sensor_id;sensor_type;location;lat;lon;timestamp;P1;durP1;ratioP1;P2;durP2;ratioP2
37451;SDS011;23314;51.114;6.900;2023-11-18T00:01:19;141.20;;;46.20;;
37451;SDS011;23314;51.114;6.900;2023-11-18T00:03:44;156.70;;;48.47;;
37451;SDS011;23314;51.114;6.900;2023-11-18T00:06:09;140.93;;;47.20;;
37451;SDS011;23314;51.114;6.900;2023-11-18T00:08:35;149.37;;;44.93;;
37451;SDS011;23314;51.114;6.900;2023-11-18T00:11:00;143.70;;;44.90;;
37451;SDS011;23314;51.114;6.900;2023-11-18T00:13:26;125.70;;;44.40;;
37451;SDS011;23314;51.114;6.900;2023-11-18T00:15:52;155.63;;;46.80;;
37451;SDS011;23314;51.114;6.900;2023-11-18T00:18:18;140.63;;;46.47;;
37451;SDS011;23314;51.114;6.900;2023-11-18T00:20:44;144.27;;;46.77;;
37451;SDS011;23314;51.114;6.900;2023-11-18T00:23:10;144.67;;;46.00;;
37451;SDS011;23314;51.114;6.900;2023-11-18T00:25:35;116.37;;;42.10;;
37451;SDS011;23314;51.114;6.900;2023-11-18T00:28:01;135.13;;;42.67;;
37451;SDS011;23314;51.114;6.900;2023-11-18T00:30:27;113.10;;;40.97;;
37451;SDS011;23314;51.114;6.900;2023-11-18T00:32:53;113.43;;;41.23;;
37451;SDS011;23314;51.114;6.900;2023-11-18T00:35:19;113.73;;;39.93;;
37451;SDS011;23314;51.114;6.900;2023-11-18T00:37:44;105.53;;;39.17;;
37451;SDS011;23314;51.114;6.900;2023-11-18T00:40:09;123.63;;;41.97;;
37451;SDS011;23314;51.114;6.900;2023-11-18T00:42:36;111.70;;;40.13;;
37451;SDS011;23314;51.114;6.900;2023-11-18T00:45:01;99.07;;;40.10;;
37451;SDS011;23314;51.114;6.900;2023-11-18T00:47:29;115.73;;;41.97;;
37451;SDS011;23314;51.114;6.900;2023-11-18T00:49:54;120.50;;;41.80;;
37451;SDS011;23314;51.114;6.900;2023-11-18T00:52:20;118.70;;;40.40;;
37451;SDS011;23314;51.114;6.900;2023-11-18T00:54:45;111.27;;;40.67;;
37451;SDS011;23314;51.114;6.900;2023-11-18T00:57:10;122.83;;;41.20;;
37451;SDS011;23314;51.114;6.900;2023-11-18T00:59:36;127.53;;;41.27;;
37451;SDS011;23314;51.114;6.900;2023-11-18T01:02:02;125.90;;;41.70;;
37451;SDS011;23314;51.114;6.900;2023-11-18T01:04:28;131.10;;;43.00;;
37451;SDS011;23314;51.114;6.900;2023-11-18T01:06:54;125.97;;;42.97;;
37451;SDS011;23314;51.114;6.900;2023-11-18T01:09:19;139.00;;;42.37;;
37451;SDS011;23314;51.114;6.900;2023-11-18T01:11:44;115.40;;;39.60;;
37451;SDS011;23314;51.114;6.900;2023-11-18T01:14:10;113.90;;;41.70;;
37451;SDS011;23314;51.114;6.900;2023-11-18T01:16:35;113.30;;;39.57;;
37451;SDS011;23314;51.114;6.900;2023-11-18T01:19:00;108.60;;;39.73;;
37451;SDS011;23314;51.114;6.900;2023-11-18T01:21:26;103.07;;;39.57;;
37451;SDS011;23314;51.114;6.900;2023-11-18T01:23:52;107.33;;;40.13;;
37451;SDS011;23314;51.114;6.900;2023-11-18T01:26:18;109.57;;;40.43;;
37451;SDS011;23314;51.114;6.900;2023-11-18T01:28:43;93.37;;;37.10;;
37451;SDS011;23314;51.114;6.900;2023-11-18T01:31:10;90.57;;;35.67;;
37451;SDS011;23314;51.114;6.900;2023-11-18T01:33:40;86.13;;;35.73;;
37451;SDS011;23314;51.114;6.900;2023-11-18T01:36:06;90.27;;;36.27;;
37451;SDS011;23314;51.114;6.900;2023-11-18T01:38:35;87.27;;;36.97;;
37451;SDS011;23314;51.114;6.900;2023-11-18T01:41:02;85.33;;;35.57;;
37451;SDS011;23314;51.114;6.900;2023-11-18T01:43:30;88.63;;;37.10;;
37451;SDS011;23314;51.114;6.900;2023-11-18T01:45:57;96.13;;;37.97;;
37451;SDS011;23314;51.114;6.900;2023-11-18T01:48:27;87.43;;;36.10;;
37451;SDS011;23314;51.114;6.900;2023-11-18T01:50:53;96.53;;;37.83;;
37451;SDS011;23314;51.114;6.900;2023-11-18T01:53:21;73.03;;;33.37;;
37451;SDS011;23314;51.114;6.900;2023-11-18T01:55:47;72.93;;;31.40;;
37451;SDS011;23314;51.114;6.900;2023-11-18T01:58:14;68.57;;;31.17;;
37451;SDS011;23314;51.114;6.900;2023-11-18T02:00:44;65.33;;;29.30;;
37451;SDS011;23314;51.114;6.900;2023-11-18T02:03:11;65.60;;;29.47;;
37451;SDS011;23314;51.114;6.900;2023-11-18T02:05:37;66.90;;;29.80;;
37451;SDS011;23314;51.114;6.900;2023-11-18T02:08:03;58.13;;;28.27;;
37451;SDS011;23314;51.114;6.900;2023-11-18T02:10:30;57.23;;;27.77;;
37451;SDS011;23314;51.114;6.900;2023-11-18T02:15:32;53.80;;;27.00;;
37451;SDS011;23314;51.114;6.900;2023-11-18T02:17:59;51.03;;;26.00;;
37451;SDS011;23314;51.114;6.900;2023-11-18T02:20:28;48.07;;;24.50;;
37451;SDS011;23314;51.114;6.900;2023-11-18T02:22:55;44.80;;;23.97;;
37451;SDS011;23314;51.114;6.900;2023-11-18T02:25:20;46.53;;;24.93;;
37451;SDS011;23314;51.114;6.900;2023-11-18T02:27:49;47.07;;;23.67;;
37451;SDS011;23314;51.114;6.900;2023-11-18T02:30:14;43.47;;;24.40;;
37451;SDS011;23314;51.114;6.900;2023-11-18T02:32:45;43.57;;;22.80;;
37451;SDS011;23314;51.114;6.900;2023-11-18T02:35:29;40.87;;;23.17;;
37451;SDS011;23314;51.114;6.900;2023-11-18T02:38:00;42.47;;;23.63;;
37451;SDS011;23314;51.114;6.900;2023-11-18T02:40:29;41.27;;;22.67;;
37451;SDS011;23314;51.114;6.900;2023-11-18T02:42:58;40.93;;;22.40;;
37451;SDS011;23314;51.114;6.900;2023-11-18T02:45:25;42.50;;;22.87;;
37451;SDS011;23314;51.114;6.900;2023-11-18T02:47:52;43.00;;;23.23;;
37451;SDS011;23314;51.114;6.900;2023-11-18T02:50:22;37.50;;;21.53;;
37451;SDS011;23314;51.114;6.900;2023-11-18T02:52:52;42.93;;;22.73;;
37451;SDS011;23314;51.114;6.900;2023-11-18T02:55:18;43.93;;;22.13;;
37451;SDS011;23314;51.114;6.900;2023-11-18T02:57:43;41.47;;;22.67;;
37451;SDS011;23314;51.114;6.900;2023-11-18T03:00:09;42.07;;;22.50;;
37451;SDS011;23314;51.114;6.900;2023-11-18T03:02:42;42.73;;;23.47;;
37451;SDS011;23314;51.114;6.900;2023-11-18T03:05:07;41.97;;;22.73;;
37451;SDS011;23314;51.114;6.900;2023-11-18T03:07:36;49.47;;;23.63;;
37451;SDS011;23314;51.114;6.900;2023-11-18T03:10:02;47.67;;;23.97;;
37451;SDS011;23314;51.114;6.900;2023-11-18T03:12:33;44.50;;;22.47;;
37451;SDS011;23314;51.114;6.900;2023-11-18T03:14:58;43.07;;;23.17;;
37451;SDS011;23314;51.114;6.900;2023-11-18T03:17:24;43.97;;;22.73;;
37451;SDS011;23314;51.114;6.900;2023-11-18T03:19:49;43.23;;;22.47;;
37451;SDS011;23314;51.114;6.900;2023-11-18T03:22:16;48.83;;;22.87;;
37451;SDS011;23314;51.114;6.900;2023-11-18T03:24:41;44.87;;;23.17;;
37451;SDS011;23314;51.114;6.900;2023-11-18T03:27:07;48.53;;;22.83;;
37451;SDS011;23314;51.114;6.900;2023-11-18T03:29:34;42.87;;;21.37;;
37451;SDS011;23314;51.114;6.900;2023-11-18T03:31:59;49.03;;;23.70;;
37451;SDS011;23314;51.114;6.900;2023-11-18T03:34:24;49.50;;;23.43;;
37451;SDS011;23314;51.114;6.900;2023-11-18T03:36:50;47.77;;;23.33;;
37451;SDS011;23314;51.114;6.900;2023-11-18T03:39:16;47.57;;;24.43;;
37451;SDS011;23314;51.114;6.900;2023-11-18T03:41:41;51.47;;;24.03;;
37451;SDS011;23314;51.114;6.900;2023-11-18T03:44:10;46.17;;;22.33;;
37451;SDS011;23314;51.114;6.900;2023-11-18T03:46:36;44.47;;;23.97;;
37451;SDS011;23314;51.114;6.900;2023-11-18T03:49:02;48.17;;;23.63;;
37451;SDS011;23314;51.114;6.900;2023-11-18T03:51:28;47.83;;;23.73;;
37451;SDS011;23314;51.114;6.900;2023-11-18T03:53:53;47.90;;;23.93;;
37451;SDS011;23314;51.114;6.900;2023-11-18T03:56:18;46.63;;;23.27;;
37451;SDS011;23314;51.114;6.900;2023-11-18T03:58:44;48.27;;;24.83;;
37451;SDS011;23314;51.114;6.900;2023-11-18T04:01:18;49.47;;;24.57;;
37451;SDS011;23314;51.114;6.900;2023-11-18T04:03:45;50.47;;;24.57;;
37451;SDS011;23314;51.114;6.900;2023-11-18T04:06:10;48.17;;;22.60;;
37451;SDS011;23314;51.114;6.900;2023-11-18T04:08:36;49.13;;;24.30;;
37451;SDS011;23314;51.114;6.900;2023-11-18T04:11:02;44.27;;;22.63;;
37451;SDS011;23314;51.114;6.900;2023-11-18T04:13:27;46.27;;;24.67;;
37451;SDS011;23314;51.114;6.900;2023-11-18T04:15:52;48.23;;;23.80;;
37451;SDS011;23314;51.114;6.900;2023-11-18T04:18:17;45.50;;;23.70;;
37451;SDS011;23314;51.114;6.900;2023-11-18T04:20:44;52.57;;;25.03;;
37451;SDS011;23314;51.114;6.900;2023-11-18T04:23:09;54.53;;;25.50;;
37451;SDS011;23314;51.114;6.900;2023-11-18T04:25:36;52.63;;;24.80;;
37451;SDS011;23314;51.114;6.900;2023-11-18T04:28:02;53.80;;;25.40;;
37451;SDS011;23314;51.114;6.900;2023-11-18T04:30:29;54.50;;;25.17;;
37451;SDS011;23314;51.114;6.900;2023-11-18T04:32:54;53.90;;;25.60;;
37451;SDS011;23314;51.114;6.900;2023-11-18T04:35:19;57.83;;;26.30;;
37451;SDS011;23314;51.114;6.900;2023-11-18T04:37:47;60.27;;;26.67;;
37451;SDS011;23314;51.114;6.900;2023-11-18T04:40:13;62.60;;;27.97;;
37451;SDS011;23314;51.114;6.900;2023-11-18T04:42:39;56.70;;;26.07;;
37451;SDS011;23314;51.114;6.900;2023-11-18T04:45:05;59.60;;;26.13;;
37451;SDS011;23314;51.114;6.900;2023-11-18T04:47:30;51.93;;;25.23;;
37451;SDS011;23314;51.114;6.900;2023-11-18T04:49:56;56.23;;;26.87;;
37451;SDS011;23314;51.114;6.900;2023-11-18T04:52:21;62.77;;;26.90;;
37451;SDS011;23314;51.114;6.900;2023-11-18T04:54:46;56.33;;;26.90;;
37451;SDS011;23314;51.114;6.900;2023-11-18T04:57:14;61.93;;;26.93;;
37451;SDS011;23314;51.114;6.900;2023-11-18T04:59:41;50.77;;;25.03;;
37451;SDS011;23314;51.114;6.900;2023-11-18T05:02:08;61.63;;;27.10;;
37451;SDS011;23314;51.114;6.900;2023-11-18T05:04:33;59.13;;;27.87;;
37451;SDS011;23314;51.114;6.900;2023-11-18T05:06:58;54.83;;;26.40;;
37451;SDS011;23314;51.114;6.900;2023-11-18T05:09:24;65.50;;;28.80;;
37451;SDS011;23314;51.114;6.900;2023-11-18T05:11:49;57.33;;;27.77;;
37451;SDS011;23314;51.114;6.900;2023-11-18T05:14:14;60.90;;;27.27;;
37451;SDS011;23314;51.114;6.900;2023-11-18T05:16:41;58.57;;;27.07;;
37451;SDS011;23314;51.114;6.900;2023-11-18T05:19:07;59.43;;;27.87;;
37451;SDS011;23314;51.114;6.900;2023-11-18T05:21:32;59.07;;;26.97;;
37451;SDS011;23314;51.114;6.900;2023-11-18T05:23:58;56.43;;;26.67;;
37451;SDS011;23314;51.114;6.900;2023-11-18T05:26:23;58.50;;;27.23;;
37451;SDS011;23314;51.114;6.900;2023-11-18T05:28:48;56.60;;;26.57;;
37451;SDS011;23314;51.114;6.900;2023-11-18T05:31:15;58.50;;;27.93;;
37451;SDS011;23314;51.114;6.900;2023-11-18T05:33:40;59.70;;;27.67;;
37451;SDS011;23314;51.114;6.900;2023-11-18T05:36:06;57.67;;;27.27;;
37451;SDS011;23314;51.114;6.900;2023-11-18T05:38:32;57.97;;;27.67;;
37451;SDS011;23314;51.114;6.900;2023-11-18T05:41:00;54.17;;;28.17;;
37451;SDS011;23314;51.114;6.900;2023-11-18T05:43:32;56.70;;;27.50;;
37451;SDS011;23314;51.114;6.900;2023-11-18T05:46:10;56.50;;;26.87;;
37451;SDS011;23314;51.114;6.900;2023-11-18T05:48:49;50.67;;;26.33;;
37451;SDS011;23314;51.114;6.900;2023-11-18T05:51:18;50.73;;;26.53;;
37451;SDS011;23314;51.114;6.900;2023-11-18T05:53:45;48.33;;;26.17;;
37451;SDS011;23314;51.114;6.900;2023-11-18T05:56:11;49.03;;;25.87;;
37451;SDS011;23314;51.114;6.900;2023-11-18T05:58:37;52.87;;;26.37;;
37451;SDS011;23314;51.114;6.900;2023-11-18T06:01:03;49.03;;;26.17;;
37451;SDS011;23314;51.114;6.900;2023-11-18T06:03:30;47.73;;;25.77;;
37451;SDS011;23314;51.114;6.900;2023-11-18T06:05:55;48.00;;;25.27;;
37451;SDS011;23314;51.114;6.900;2023-11-18T06:08:21;46.70;;;25.20;;
37451;SDS011;23314;51.114;6.900;2023-11-18T06:10:48;47.93;;;25.03;;
37451;SDS011;23314;51.114;6.900;2023-11-18T06:13:14;49.23;;;25.70;;
37451;SDS011;23314;51.114;6.900;2023-11-18T06:15:41;42.17;;;24.23;;
37451;SDS011;23314;51.114;6.900;2023-11-18T06:18:08;45.07;;;24.13;;
37451;SDS011;23314;51.114;6.900;2023-11-18T06:20:37;45.60;;;25.50;;
37451;SDS011;23314;51.114;6.900;2023-11-18T06:23:03;45.90;;;25.10;;
37451;SDS011;23314;51.114;6.900;2023-11-18T06:25:28;42.27;;;24.13;;
37451;SDS011;23314;51.114;6.900;2023-11-18T06:27:56;46.00;;;24.23;;
37451;SDS011;23314;51.114;6.900;2023-11-18T06:30:23;45.90;;;24.80;;
37451;SDS011;23314;51.114;6.900;2023-11-18T06:32:48;44.23;;;24.07;;
37451;SDS011;23314;51.114;6.900;2023-11-18T06:35:14;40.53;;;24.07;;
37451;SDS011;23314;51.114;6.900;2023-11-18T06:37:42;41.77;;;22.97;;
37451;SDS011;23314;51.114;6.900;2023-11-18T06:40:08;39.60;;;23.93;;
37451;SDS011;23314;51.114;6.900;2023-11-18T06:42:41;40.17;;;23.63;;
37451;SDS011;23314;51.114;6.900;2023-11-18T06:45:13;41.73;;;23.20;;
37451;SDS011;23314;51.114;6.900;2023-11-18T06:47:40;40.23;;;22.23;;
37451;SDS011;23314;51.114;6.900;2023-11-18T06:50:10;40.47;;;23.40;;
37451;SDS011;23314;51.114;6.900;2023-11-18T06:52:39;41.90;;;23.80;;
37451;SDS011;23314;51.114;6.900;2023-11-18T06:55:06;38.40;;;22.90;;
37451;SDS011;23314;51.114;6.900;2023-11-18T06:57:32;42.07;;;23.57;;
37451;SDS011;23314;51.114;6.900;2023-11-18T06:59:58;41.37;;;23.00;;
37451;SDS011;23314;51.114;6.900;2023-11-18T07:02:23;41.40;;;23.57;;
37451;SDS011;23314;51.114;6.900;2023-11-18T07:04:48;41.87;;;22.90;;
37451;SDS011;23314;51.114;6.900;2023-11-18T07:07:14;39.77;;;23.43;;
37451;SDS011;23314;51.114;6.900;2023-11-18T07:09:39;41.10;;;23.93;;
37451;SDS011;23314;51.114;6.900;2023-11-18T07:12:05;41.47;;;23.43;;
37451;SDS011;23314;51.114;6.900;2023-11-18T07:14:30;41.23;;;23.33;;
37451;SDS011;23314;51.114;6.900;2023-11-18T07:16:56;42.50;;;23.83;;
37451;SDS011;23314;51.114;6.900;2023-11-18T08:13:56;31.43;;;20.43;;
37451;SDS011;23314;51.114;6.900;2023-11-18T08:16:23;27.17;;;18.83;;
37451;SDS011;23314;51.114;6.900;2023-11-18T08:18:49;25.47;;;18.07;;
37451;SDS011;23314;51.114;6.900;2023-11-18T08:21:15;27.50;;;18.13;;
37451;SDS011;23314;51.114;6.900;2023-11-18T08:23:41;25.80;;;18.23;;
37451;SDS011;23314;51.114;6.900;2023-11-18T08:26:06;26.13;;;18.03;;
37451;SDS011;23314;51.114;6.900;2023-11-18T08:28:32;24.93;;;16.97;;
37451;SDS011;23314;51.114;6.900;2023-11-18T08:30:57;23.87;;;16.53;;
37451;SDS011;23314;51.114;6.900;2023-11-18T08:33:22;24.63;;;16.63;;
37451;SDS011;23314;51.114;6.900;2023-11-18T08:35:50;24.83;;;16.00;;
37451;SDS011;23314;51.114;6.900;2023-11-18T08:38:16;22.30;;;15.60;;
37451;SDS011;23314;51.114;6.900;2023-11-18T08:40:41;23.30;;;15.47;;
37451;SDS011;23314;51.114;6.900;2023-11-18T08:43:07;20.17;;;15.70;;
37451;SDS011;23314;51.114;6.900;2023-11-18T08:45:33;20.97;;;14.77;;
37451;SDS011;23314;51.114;6.900;2023-11-18T08:48:00;20.37;;;14.47;;
37451;SDS011;23314;51.114;6.900;2023-11-18T08:50:27;21.20;;;15.20;;
37451;SDS011;23314;51.114;6.900;2023-11-18T08:52:54;19.53;;;14.20;;
37451;SDS011;23314;51.114;6.900;2023-11-18T08:55:23;17.90;;;14.07;;
37451;SDS011;23314;51.114;6.900;2023-11-18T08:58:13;18.47;;;13.17;;
37451;SDS011;23314;51.114;6.900;2023-11-18T09:00:44;21.13;;;13.93;;
37451;SDS011;23314;51.114;6.900;2023-11-18T09:03:23;18.73;;;13.83;;
37451;SDS011;23314;51.114;6.900;2023-11-18T09:05:50;17.23;;;13.70;;
37451;SDS011;23314;51.114;6.900;2023-11-18T09:08:22;17.70;;;13.70;;
37451;SDS011;23314;51.114;6.900;2023-11-18T09:11:09;19.77;;;13.90;;
37451;SDS011;23314;51.114;6.900;2023-11-18T09:13:36;18.30;;;13.17;;
37451;SDS011;23314;51.114;6.900;2023-11-18T09:16:04;16.80;;;12.13;;
37451;SDS011;23314;51.114;6.900;2023-11-18T09:18:34;18.33;;;12.37;;
37451;SDS011;23314;51.114;6.900;2023-11-18T09:21:03;18.20;;;13.03;;
37451;SDS011;23314;51.114;6.900;2023-11-18T09:23:30;17.80;;;12.90;;
37451;SDS011;23314;51.114;6.900;2023-11-18T09:26:03;18.73;;;12.67;;
37451;SDS011;23314;51.114;6.900;2023-11-18T09:28:32;17.43;;;11.93;;
37451;SDS011;23314;51.114;6.900;2023-11-18T09:31:00;18.90;;;12.07;;
37451;SDS011;23314;51.114;6.900;2023-11-18T09:33:28;17.13;;;13.13;;
37451;SDS011;23314;51.114;6.900;2023-11-18T09:36:02;16.73;;;11.40;;
37451;SDS011;23314;51.114;6.900;2023-11-18T09:38:29;15.90;;;11.30;;
37451;SDS011;23314;51.114;6.900;2023-11-18T09:40:59;16.33;;;11.73;;
37451;SDS011;23314;51.114;6.900;2023-11-18T09:43:30;15.87;;;11.97;;
37451;SDS011;23314;51.114;6.900;2023-11-18T09:46:03;15.90;;;12.30;;
37451;SDS011;23314;51.114;6.900;2023-11-18T09:48:38;18.23;;;11.33;;
37451;SDS011;23314;51.114;6.900;2023-11-18T09:51:06;16.37;;;11.47;;
37451;SDS011;23314;51.114;6.900;2023-11-18T09:53:34;13.77;;;10.73;;
37451;SDS011;23314;51.114;6.900;2023-11-18T09:56:07;16.50;;;10.93;;
37451;SDS011;23314;51.114;6.900;2023-11-18T09:58:41;14.40;;;11.20;;
37451;SDS011;23314;51.114;6.900;2023-11-18T10:01:15;13.53;;;10.83;;
37451;SDS011;23314;51.114;6.900;2023-11-18T10:03:43;16.47;;;11.00;;
37451;SDS011;23314;51.114;6.900;2023-11-18T10:06:11;14.20;;;11.43;;
37451;SDS011;23314;51.114;6.900;2023-11-18T10:08:39;11.57;;;10.23;;
37451;SDS011;23314;51.114;6.900;2023-11-18T10:11:05;16.13;;;10.90;;
37451;SDS011;23314;51.114;6.900;2023-11-18T10:13:34;13.27;;;10.70;;
37451;SDS011;23314;51.114;6.900;2023-11-18T10:16:05;14.60;;;10.80;;
37451;SDS011;23314;51.114;6.900;2023-11-18T10:18:34;13.17;;;11.43;;
37451;SDS011;23314;51.114;6.900;2023-11-18T10:21:02;14.03;;;10.80;;
37451;SDS011;23314;51.114;6.900;2023-11-18T10:23:33;16.43;;;11.00;;
37451;SDS011;23314;51.114;6.900;2023-11-18T10:25:59;13.30;;;9.70;;
37451;SDS011;23314;51.114;6.900;2023-11-18T10:28:35;15.20;;;9.73;;
37451;SDS011;23314;51.114;6.900;2023-11-18T10:31:07;14.73;;;10.60;;
37451;SDS011;23314;51.114;6.900;2023-11-18T10:33:38;11.13;;;9.93;;
37451;SDS011;23314;51.114;6.900;2023-11-18T10:36:06;14.30;;;10.47;;
37451;SDS011;23314;51.114;6.900;2023-11-18T10:38:47;12.17;;;9.97;;
37451;SDS011;23314;51.114;6.900;2023-11-18T10:41:15;15.37;;;11.23;;
37451;SDS011;23314;51.114;6.900;2023-11-18T10:43:42;18.47;;;10.13;;
37451;SDS011;23314;51.114;6.900;2023-11-18T10:46:10;11.67;;;10.47;;
37451;SDS011;23314;51.114;6.900;2023-11-18T10:51:06;15.60;;;10.20;;
37451;SDS011;23314;51.114;6.900;2023-11-18T10:53:32;18.30;;;10.97;;
37451;SDS011;23314;51.114;6.900;2023-11-18T10:55:58;15.33;;;10.73;;
37451;SDS011;23314;51.114;6.900;2023-11-18T10:58:23;12.60;;;9.90;;
37451;SDS011;23314;51.114;6.900;2023-11-18T11:00:50;12.70;;;9.97;;
37451;SDS011;23314;51.114;6.900;2023-11-18T11:03:18;15.20;;;8.90;;
37451;SDS011;23314;51.114;6.900;2023-11-18T11:05:44;13.33;;;9.80;;
37451;SDS011;23314;51.114;6.900;2023-11-18T11:08:13;12.37;;;9.60;;
37451;SDS011;23314;51.114;6.900;2023-11-18T11:10:48;11.47;;;9.17;;
37451;SDS011;23314;51.114;6.900;2023-11-18T11:13:16;14.40;;;9.00;;
37451;SDS011;23314;51.114;6.900;2023-11-18T11:15:43;10.07;;;8.93;;
37451;SDS011;23314;51.114;6.900;2023-11-18T11:18:11;13.60;;;9.83;;
37451;SDS011;23314;51.114;6.900;2023-11-18T11:20:53;11.53;;;8.83;;
37451;SDS011;23314;51.114;6.900;2023-11-18T11:23:50;12.60;;;8.77;;
37451;SDS011;23314;51.114;6.900;2023-11-18T11:26:26;9.40;;;8.30;;
37451;SDS011;23314;51.114;6.900;2023-11-18T11:29:07;10.27;;;8.70;;
37451;SDS011;23314;51.114;6.900;2023-11-18T11:31:35;12.70;;;8.70;;
37451;SDS011;23314;51.114;6.900;2023-11-18T11:34:04;12.37;;;9.57;;
37451;SDS011;23314;51.114;6.900;2023-11-18T11:36:41;11.23;;;9.10;;
37451;SDS011;23314;51.114;6.900;2023-11-18T11:39:08;11.57;;;9.50;;
37451;SDS011;23314;51.114;6.900;2023-11-18T11:41:46;12.70;;;9.73;;
37451;SDS011;23314;51.114;6.900;2023-11-18T11:44:16;15.07;;;8.30;;
37451;SDS011;23314;51.114;6.900;2023-11-18T11:46:44;7.87;;;6.47;;
37451;SDS011;23314;51.114;6.900;2023-11-18T11:49:12;6.40;;;5.20;;
37451;SDS011;23314;51.114;6.900;2023-11-18T11:51:49;10.63;;;8.77;;
37451;SDS011;23314;51.114;6.900;2023-11-18T11:54:27;12.73;;;8.53;;
37451;SDS011;23314;51.114;6.900;2023-11-18T11:57:02;9.40;;;8.40;;
37451;SDS011;23314;51.114;6.900;2023-11-18T12:02:07;14.37;;;9.13;;
37451;SDS011;23314;51.114;6.900;2023-11-18T12:04:35;12.27;;;8.80;;
37451;SDS011;23314;51.114;6.900;2023-11-18T12:07:03;16.53;;;8.87;;
37451;SDS011;23314;51.114;6.900;2023-11-18T12:09:34;11.47;;;9.07;;
37451;SDS011;23314;51.114;6.900;2023-11-18T12:12:03;10.50;;;9.23;;
37451;SDS011;23314;51.114;6.900;2023-11-18T12:14:54;11.33;;;8.70;;
37451;SDS011;23314;51.114;6.900;2023-11-18T12:17:21;13.27;;;8.53;;
37451;SDS011;23314;51.114;6.900;2023-11-18T12:19:48;13.10;;;8.73;;
37451;SDS011;23314;51.114;6.900;2023-11-18T12:22:17;10.03;;;9.00;;
37451;SDS011;23314;51.114;6.900;2023-11-18T12:30:04;13.40;;;10.10;;
37451;SDS011;23314;51.114;6.900;2023-11-18T12:35:39;14.97;;;9.40;;
37451;SDS011;23314;51.114;6.900;2023-11-18T12:41:38;15.33;;;9.30;;
37451;SDS011;23314;51.114;6.900;2023-11-18T12:47:03;15.20;;;9.23;;
37451;SDS011;23314;51.114;6.900;2023-11-18T12:49:40;10.33;;;8.50;;
37451;SDS011;23314;51.114;6.900;2023-11-18T12:52:06;13.50;;;7.90;;
37451;SDS011;23314;51.114;6.900;2023-11-18T12:54:33;12.97;;;7.80;;
37451;SDS011;23314;51.114;6.900;2023-11-18T12:57:02;10.60;;;7.80;;
37451;SDS011;23314;51.114;6.900;2023-11-18T12:59:31;18.87;;;9.00;;
37451;SDS011;23314;51.114;6.900;2023-11-18T13:01:57;9.10;;;7.53;;
37451;SDS011;23314;51.114;6.900;2023-11-18T13:04:23;10.33;;;7.40;;
37451;SDS011;23314;51.114;6.900;2023-11-18T13:06:49;10.07;;;7.47;;
37451;SDS011;23314;51.114;6.900;2023-11-18T13:09:16;11.40;;;8.00;;
37451;SDS011;23314;51.114;6.900;2023-11-18T13:11:55;11.83;;;7.87;;
37451;SDS011;23314;51.114;6.900;2023-11-18T13:14:28;14.03;;;7.57;;
37451;SDS011;23314;51.114;6.900;2023-11-18T13:16:55;12.83;;;7.50;;
37451;SDS011;23314;51.114;6.900;2023-11-18T13:19:28;10.10;;;7.07;;
37451;SDS011;23314;51.114;6.900;2023-11-18T13:22:00;13.33;;;8.07;;
37451;SDS011;23314;51.114;6.900;2023-11-18T13:24:33;11.25;;;8.07;;
37451;SDS011;23314;51.114;6.900;2023-11-18T13:27:00;10.40;;;7.73;;
37451;SDS011;23314;51.114;6.900;2023-11-18T13:29:28;9.47;;;7.33;;
37451;SDS011;23314;51.114;6.900;2023-11-18T13:31:54;11.73;;;6.83;;
37451;SDS011;23314;51.114;6.900;2023-11-18T13:34:21;9.07;;;6.30;;
37451;SDS011;23314;51.114;6.900;2023-11-18T13:36:47;8.93;;;5.87;;
37451;SDS011;23314;51.114;6.900;2023-11-18T13:39:17;13.03;;;6.43;;
37451;SDS011;23314;51.114;6.900;2023-11-18T13:41:44;8.80;;;5.77;;
37451;SDS011;23314;51.114;6.900;2023-11-18T13:44:11;10.63;;;5.40;;
37451;SDS011;23314;51.114;6.900;2023-11-18T13:46:39;7.20;;;4.90;;
37451;SDS011;23314;51.114;6.900;2023-11-18T13:49:06;8.37;;;4.80;;
37451;SDS011;23314;51.114;6.900;2023-11-18T13:51:31;7.40;;;5.20;;
37451;SDS011;23314;51.114;6.900;2023-11-18T13:53:58;7.07;;;5.27;;
37451;SDS011;23314;51.114;6.900;2023-11-18T13:56:24;11.03;;;5.40;;
37451;SDS011;23314;51.114;6.900;2023-11-18T13:58:52;8.23;;;5.53;;
37451;SDS011;23314;51.114;6.900;2023-11-18T14:01:18;8.27;;;5.33;;
37451;SDS011;23314;51.114;6.900;2023-11-18T14:03:43;10.17;;;5.10;;
37451;SDS011;23314;51.114;6.900;2023-11-18T14:06:09;6.77;;;4.80;;
37451;SDS011;23314;51.114;6.900;2023-11-18T14:08:42;7.87;;;4.57;;
37451;SDS011;23314;51.114;6.900;2023-11-18T14:11:08;7.77;;;4.17;;
37451;SDS011;23314;51.114;6.900;2023-11-18T14:13:34;7.13;;;4.63;;
37451;SDS011;23314;51.114;6.900;2023-11-18T14:16:00;8.30;;;4.17;;
37451;SDS011;23314;51.114;6.900;2023-11-18T14:18:26;7.63;;;4.40;;
37451;SDS011;23314;51.114;6.900;2023-11-18T14:20:52;4.83;;;4.00;;
37451;SDS011;23314;51.114;6.900;2023-11-18T14:23:18;10.43;;;4.73;;
37451;SDS011;23314;51.114;6.900;2023-11-18T14:25:44;6.27;;;4.33;;
37451;SDS011;23314;51.114;6.900;2023-11-18T14:28:12;8.33;;;4.47;;
37451;SDS011;23314;51.114;6.900;2023-11-18T14:30:38;7.20;;;4.63;;
37451;SDS011;23314;51.114;6.900;2023-11-18T14:33:03;7.90;;;4.57;;
37451;SDS011;23314;51.114;6.900;2023-11-18T14:35:29;10.80;;;5.80;;
37451;SDS011;23314;51.114;6.900;2023-11-18T14:37:54;9.73;;;5.03;;
37451;SDS011;23314;51.114;6.900;2023-11-18T14:40:21;7.50;;;4.63;;
37451;SDS011;23314;51.114;6.900;2023-11-18T14:42:49;7.73;;;5.30;;
37451;SDS011;23314;51.114;6.900;2023-11-18T14:45:14;9.90;;;5.40;;
37451;SDS011;23314;51.114;6.900;2023-11-18T14:47:40;10.83;;;6.00;;
37451;SDS011;23314;51.114;6.900;2023-11-18T14:50:06;10.63;;;6.17;;
37451;SDS011;23314;51.114;6.900;2023-11-18T14:52:41;11.47;;;6.30;;
37451;SDS011;23314;51.114;6.900;2023-11-18T14:55:07;10.43;;;6.40;;
37451;SDS011;23314;51.114;6.900;2023-11-18T14:57:37;10.37;;;6.73;;
37451;SDS011;23314;51.114;6.900;2023-11-18T15:00:06;15.93;;;7.27;;
37451;SDS011;23314;51.114;6.900;2023-11-18T15:02:37;15.13;;;7.03;;
37451;SDS011;23314;51.114;6.900;2023-11-18T15:05:03;13.13;;;7.07;;
37451;SDS011;23314;51.114;6.900;2023-11-18T15:07:34;12.50;;;6.87;;
37451;SDS011;23314;51.114;6.900;2023-11-18T15:09:59;16.40;;;7.70;;
37451;SDS011;23314;51.114;6.900;2023-11-18T15:12:24;16.87;;;8.33;;
37451;SDS011;23314;51.114;6.900;2023-11-18T15:14:50;13.77;;;7.87;;
37451;SDS011;23314;51.114;6.900;2023-11-18T15:17:15;13.20;;;7.93;;
37451;SDS011;23314;51.114;6.900;2023-11-18T15:19:40;13.40;;;8.00;;
37451;SDS011;23314;51.114;6.900;2023-11-18T15:22:06;11.23;;;7.90;;
37451;SDS011;23314;51.114;6.900;2023-11-18T15:24:31;16.27;;;8.30;;
37451;SDS011;23314;51.114;6.900;2023-11-18T15:26:57;16.10;;;9.37;;
37451;SDS011;23314;51.114;6.900;2023-11-18T15:29:25;17.30;;;8.27;;
37451;SDS011;23314;51.114;6.900;2023-11-18T15:31:56;13.23;;;8.13;;
37451;SDS011;23314;51.114;6.900;2023-11-18T15:34:21;17.30;;;9.03;;
37451;SDS011;23314;51.114;6.900;2023-11-18T15:36:47;14.63;;;8.60;;
37451;SDS011;23314;51.114;6.900;2023-11-18T15:39:13;13.97;;;8.37;;
37451;SDS011;23314;51.114;6.900;2023-11-18T15:41:39;16.43;;;7.87;;
37451;SDS011;23314;51.114;6.900;2023-11-18T15:44:06;13.53;;;7.53;;
37451;SDS011;23314;51.114;6.900;2023-11-18T15:46:32;11.33;;;8.33;;